Latest Weather Observations for Cape Willoughby

IDS60801

Issued at 9:01 pm CST Wednesday 26 April 2017 (issued every 30 minutes, with the page automatically refreshed every 10 minutes)

About weather observations | Map of weather stations | Latest weather observations for SA | Other Formats
Station Details ID: 022803 Name: CAPE WILLOUGHBY Lat: -35.84 Lon: 138.13 Height: 55.0 m
Data from the previous 72 hours. | See also: Recent months at Cape Willoughby
Date/Time
CST
Temp
°C
App
Temp
°C
Dew
Point
°C
Rel
Hum
%
Delta-T
°C
Wind Press
QNH
hPa
Press
MSL
hPa
Rain since
9am
mm
Dir  Spd
km/h
Gust
km/h
Spd
kts
Gust
kts
26/09:00pm 13.4 6.8 4.3 54 4.1 SSW 28 39 15 21 1025.1 1025.0 -
26/08:30pm 13.6 7.0 4.2 53 4.3 SSW 28 41 15 22 1025.0 1024.9 -
26/08:00pm 13.7 7.3 5.3 57 3.9 S 28 41 15 22 1025.0 1024.9 -
26/07:30pm 13.4 6.4 6.0 61 3.5 SSW 32 41 17 22 1024.7 1024.6 -
26/07:06pm 13.1 6.3 6.9 66 3.0 S 32 52 17 28 1024.8 1024.7 0.0
26/07:00pm 13.0 5.9 6.4 64 3.2 S 33 52 18 28 1024.4 1024.3 0.0
26/06:57pm 12.8 6.8 7.0 68 2.8 SSW 28 52 15 28 1024.3 1024.2 0.0
26/06:30pm 13.1 6.5 6.2 63 3.3 SSW 30 41 16 22 1024.2 1024.1 0.0
26/06:00pm 13.3 7.5 6.2 62 3.4 S 26 37 14 20 1024.1 1024.0 0.0
26/05:30pm 13.2 7.5 5.1 58 3.8 S 24 33 13 18 1023.8 1023.7 0.0
26/05:00pm 13.4 7.6 4.6 55 4.1 S 24 37 13 20 1023.6 1023.5 0.0
26/04:30pm 13.4 7.4 5.3 58 3.8 S 26 37 14 20 1023.4 1023.3 0.0
26/04:00pm 13.5 7.0 4.9 56 4.0 S 28 41 15 22 1023.5 1023.4 0.0
26/03:30pm 13.4 6.0 4.8 56 4.0 S 33 46 18 25 1023.2 1023.1 0.0
26/03:00pm 13.4 6.0 5.1 57 3.9 S 33 44 18 24 1022.8 1022.7 0.0
26/02:30pm 13.3 5.5 5.0 57 3.8 S 35 44 19 24 1022.6 1022.5 0.0
26/02:00pm 13.6 7.1 4.7 55 4.1 S 28 39 15 21 1022.4 1022.3 0.0
26/01:30pm 13.4 5.2 4.6 55 4.0 S 37 48 20 26 1022.3 1022.2 0.0
26/01:00pm 13.1 3.9 6.5 64 3.2 S 44 56 24 30 1022.1 1022.0 0.0
26/12:30pm 12.8 5.4 6.6 66 3.0 SSE 35 48 19 26 1022.2 1022.1 0.0
26/12:00pm 13.3 5.4 6.4 63 3.3 S 37 48 20 26 1022.3 1022.2 0.0
26/11:30am 13.2 5.0 4.9 57 3.8 S 37 50 20 27 1022.2 1022.1 0.0
26/11:00am 12.9 4.3 6.7 66 3.0 S 41 54 22 29 1022.1 1022.0 0.0
26/10:30am 13.2 4.6 6.5 64 3.2 S 41 54 22 29 1021.7 1021.6 0.0
26/10:00am 12.8 3.2 6.4 65 3.1 S 46 56 25 30 1021.4 1021.3 0.0
26/09:30am 12.4 3.4 6.2 66 2.9 S 43 63 23 34 1020.7 1020.6 0.0
26/09:29am 12.8 3.8 6.4 65 3.1 S 43 61 23 33 1020.7 1020.6 0.0
26/09:00am 12.6 2.0 5.1 60 3.5 S 50 67 27 36 1020.3 1020.2 -
26/08:49am 12.7 2.4 4.7 58 3.7 S 48 69 26 37 1020.2 1020.1 -
26/08:30am 12.6 0.9 5.3 61 3.4 S 56 72 30 39 1019.5 1019.5 -
26/08:21am 12.5 2.5 6.3 66 2.9 S 48 72 26 39 1019.0 1019.0 -
26/08:00am 12.9 3.3 3.6 53 4.2 S 43 65 23 35 1019.2 1019.2 -
26/07:37am 12.8 2.8 4.3 56 3.9 S 46 65 25 35 1018.5 1018.5 -
26/07:30am 12.7 2.9 5.4 61 3.4 S 46 61 25 33 1018.5 1018.5 -
26/07:07am 12.4 1.9 5.6 63 3.2 S 50 87 27 47 1017.4 1017.4 -
26/07:03am 12.8 3.3 5.0 59 3.6 S 44 65 24 35 1018.1 1018.1 -
26/07:00am 12.8 3.3 5.0 59 3.6 S 44 63 24 34 1017.9 1017.9 -
26/06:38am 12.5 1.4 4.5 58 3.7 S 52 70 28 38 1017.6 1017.6 -
26/06:30am 12.4 0.8 3.9 56 3.8 S 54 72 29 39 1017.3 1017.3 -
26/06:02am 12.0 1.1 5.6 65 3.0 S 52 70 28 38 1017.3 1017.3 -
26/06:00am 11.8 0.4 4.8 62 3.2 S 54 70 29 38 1017.1 1017.1 -
26/05:57am 12.1 1.5 5.3 63 3.2 S 50 70 27 38 1016.6 1016.5 -
26/05:49am 12.2 2.9 6.0 66 2.9 S 44 70 24 38 1017.1 1017.1 -
26/05:47am 12.4 3.0 7.1 70 2.6 S 46 70 25 38 1017.0 1016.9 -
26/05:30am 11.4 0.0 6.9 74 2.1 S 56 80 30 43 1016.2 1016.1 -
26/05:28am 11.6 1.0 6.7 72 2.3 SSW 52 80 28 43 1016.0 1015.9 -
26/05:25am 12.2 2.5 7.7 74 2.2 SSW 48 69 26 37 1016.2 1016.1 -
26/05:10am 11.6 2.4 6.3 70 2.5 SSW 44 69 24 37 1016.5 1016.4 -
26/05:01am 12.2 1.6 5.1 62 3.3 S 50 69 27 37 1015.8 1015.7 -
26/05:00am 12.3 2.2 5.5 63 3.2 S 48 65 26 35 1015.9 1015.8 -
26/04:30am 11.8 1.1 6.5 70 2.5 S 52 80 28 43 1014.8 1014.7 -
26/04:00am 11.8 -0.6 4.5 61 3.3 S 59 89 32 48 1015.1 1015.0 -
26/03:59am 11.9 -1.1 5.3 64 3.1 S 63 93 34 50 1015.1 1015.0 -
26/03:58am 11.9 -1.9 5.1 63 3.1 S 67 93 36 50 1015.1 1015.0 -
26/03:54am 11.0 -3.3 4.5 64 2.9 SSW 69 93 37 50 1014.7 1014.6 -
26/03:51am 11.3 -2.1 5.2 66 2.8 SSW 65 93 35 50 1013.8 1013.7 -
26/03:30am 12.3 0.0 5.2 62 3.3 SSW 59 82 32 44 1014.5 1014.4 -
26/03:28am 12.2 -0.9 4.9 61 3.4 SSW 63 82 34 44 1014.4 1014.3 -
26/03:20am 12.1 1.3 4.3 59 3.5 SSW 50 82 27 44 1014.1 1014.0 -
26/03:14am 12.5 1.0 6.3 66 2.9 SSW 56 78 30 42 1014.6 1014.5 -
26/03:13am 12.4 0.2 5.6 63 3.2 SSW 59 80 32 43 1014.6 1014.5 -
26/03:00am 12.0 -1.3 4.0 58 3.6 SSW 63 78 34 42 1014.2 1014.1 -
26/02:51am 12.3 2.2 5.5 63 3.2 SSW 48 76 26 41 1014.0 1013.9 -
26/02:48am 12.7 2.8 6.5 66 3.0 SSW 48 74 26 40 1014.2 1014.1 -
26/02:46am 12.5 1.8 6.5 67 2.9 SSW 52 74 28 40 1014.2 1014.1 -
26/02:30am 12.0 -1.1 5.0 62 3.2 SSW 63 83 34 45 1013.7 1013.6 -
26/02:09am 12.4 -0.8 6.2 66 2.9 SSW 65 85 35 46 1013.6 1013.5 -
26/02:00am 12.3 -1.4 5.7 64 3.1 SSW 67 82 36 44 1013.1 1013.0 -
26/01:31am 12.1 0.2 6.8 70 2.5 SSW 59 78 32 42 1012.8 1012.7 -
26/01:30am 12.0 0.1 6.9 71 2.4 SSW 59 76 32 41 1013.0 1012.9 -
26/01:10am 11.4 -1.5 9.1 86 1.2 SSW 67 87 36 47 1013.1 1013.0 -
26/01:09am 11.1 -2.0 8.5 84 1.3 SSW 67 87 36 47 1012.9 1012.8 -
26/01:06am 11.7 -1.2 7.6 76 2.0 SSW 65 87 35 47 1012.4 1012.3 -
26/01:00am 12.3 1.8 7.2 71 2.5 SW 52 72 28 39 1012.6 1012.5 -
26/12:56am 12.2 2.8 8.7 79 1.7 SW 48 70 26 38 1013.0 1012.9 -
26/12:49am 11.6 0.6 9.0 84 1.3 SW 57 82 31 44 1013.0 1012.9 -
26/12:30am 11.4 -1.7 8.4 82 1.5 SW 67 89 36 48 1012.7 1012.6 5.2
26/12:22am 10.9 -1.2 7.6 80 1.6 SW 61 93 33 50 1012.3 1012.2 5.0
26/12:21am 12.4 0.5 8.7 78 1.8 SW 61 93 33 50 1012.1 1012.0 4.6
26/12:19am 13.2 2.2 8.5 73 2.4 SW 56 80 30 43 1012.1 1012.0 4.6
26/12:00am 13.3 2.2 8.2 71 2.5 SSW 56 70 30 38 1012.3 1012.2 4.6
 
Date/Time
CST
Temp
°C
App
Temp
°C
Dew
Point
°C
Rel
Hum
%
Delta-T
°C
Wind Press
QNH
hPa
Press
MSL
hPa
Rain since
9am
mm
Dir  Spd
km/h
Gust
km/h
Spd
kts
Gust
kts
25/11:32pm 13.4 2.4 8.5 72 2.5 SW 56 82 30 44 1012.0 1011.9 4.4
25/11:30pm 13.8 2.8 8.6 71 2.6 SSW 56 67 30 36 1012.0 1011.9 4.4
25/11:00pm 14.0 2.6 9.2 73 2.5 SW 59 80 32 43 1011.7 1011.6 4.4
25/10:31pm 14.3 4.6 8.9 70 2.7 SW 50 69 27 37 1011.6 1011.5 4.4
25/10:30pm 14.3 4.5 8.7 69 2.8 SW 50 67 27 36 1011.8 1011.7 4.4
25/10:00pm 14.1 2.6 10.1 77 2.1 SW 61 80 33 43 1011.2 1011.1 4.4
25/09:46pm 14.3 3.9 10.7 79 1.9 SW 56 76 30 41 1010.9 1010.8 4.4
25/09:30pm 13.2 4.2 11.6 90 0.9 SSW 50 65 27 35 1011.2 1011.1 4.4
25/09:17pm 13.7 8.4 12.4 92 0.7 WSW 32 54 17 29 1011.5 1011.4 3.0
25/09:00pm 13.4 8.7 10.8 84 1.4 W 26 37 14 20 1011.5 1011.4 0.6
25/08:30pm 14.2 9.4 10.2 77 2.1 WNW 26 35 14 19 1011.5 1011.4 0.6
25/08:00pm 14.2 10.0 9.6 74 2.4 WNW 22 30 12 16 1011.7 1011.6 0.6
25/07:30pm 14.1 9.7 9.1 72 2.6 WNW 22 30 12 16 1011.6 1011.5 0.6
25/07:00pm 14.3 10.5 9.1 71 2.7 WNW 19 26 10 14 1011.7 1011.6 0.6
25/06:30pm 14.6 9.5 9.2 70 2.8 W 26 37 14 20 1011.6 1011.5 0.6
25/06:00pm 15.0 8.2 9.4 69 2.9 WSW 35 52 19 28 1011.4 1011.3 0.6
25/05:56pm 15.0 8.6 9.4 69 2.9 WSW 33 52 18 28 1011.3 1011.2 0.6
25/05:30pm 15.0 10.9 11.6 80 1.8 W 24 39 13 21 1011.0 1010.9 0.6
25/05:00pm 15.7 12.2 12.1 79 2.0 W 22 28 12 15 1011.0 1010.9 0.6
25/04:30pm 15.8 12.8 12.4 80 1.9 W 20 33 11 18 1011.0 1010.9 0.6
25/04:00pm 15.0 12.4 13.2 89 1.0 WSW 19 26 10 14 1011.2 1011.1 0.6
25/03:30pm 16.5 13.1 12.5 77 2.2 W 22 32 12 17 1011.2 1011.1 0.4
25/03:00pm 16.3 12.2 12.7 79 2.0 W 26 33 14 18 1011.3 1011.2 0.4
25/02:30pm 15.9 10.7 12.8 82 1.7 WSW 32 39 17 21 1011.2 1011.1 0.4
25/02:00pm 15.5 9.6 13.5 88 1.1 WSW 37 50 20 27 1011.5 1011.4 0.4
25/01:30pm 16.5 10.6 13.6 83 1.6 SW 37 54 20 29 1011.5 1011.4 0.0
25/01:23pm 17.7 12.9 13.0 74 2.6 SW 30 48 16 26 1011.6 1011.5 0.0
25/01:00pm 17.9 14.5 12.6 71 3.0 SW 22 35 12 19 1011.8 1011.7 0.0
25/12:30pm 18.5 15.7 13.1 71 3.1 SW 20 33 11 18 1012.0 1011.9 0.0
25/12:00pm 18.0 14.4 12.9 72 2.9 SW 24 32 13 17 1012.4 1012.3 0.0
25/11:30am 18.0 14.3 12.7 71 3.0 SW 24 33 13 18 1012.8 1012.7 0.0
25/11:00am 17.7 13.6 12.8 73 2.7 WSW 26 33 14 18 1013.0 1012.9 0.0
25/10:30am 17.3 13.1 13.4 78 2.2 WSW 28 37 15 20 1013.2 1013.1 0.0
25/10:00am 17.2 13.9 13.9 81 1.9 WSW 24 33 13 18 1013.5 1013.4 0.0
25/09:30am 17.0 13.4 14.3 84 1.5 WSW 26 35 14 19 1013.5 1013.4 0.0
25/09:00am 17.0 14.8 15.0 88 1.2 W 20 26 11 14 1013.6 1013.5 -
25/08:30am 16.4 14.4 14.9 91 0.9 WSW 19 26 10 14 1013.4 1013.3 -
25/08:00am 14.9 12.3 13.8 93 0.6 W 20 26 11 14 1013.0 1012.9 -
25/07:30am 14.9 12.4 13.6 92 0.7 W 19 24 10 13 1012.7 1012.6 -
25/07:00am 14.5 12.7 13.2 92 0.7 W 15 19 8 10 1012.4 1012.3 -
25/06:30am 14.6 12.5 13.5 93 0.6 W 17 20 9 11 1012.2 1012.1 -
25/06:00am 14.3 11.7 13.2 93 0.6 W 19 22 10 12 1012.0 1011.9 -
25/05:30am 14.1 11.8 13.0 93 0.6 W 17 22 9 12 1012.0 1011.9 -
25/05:00am 14.0 11.1 12.9 93 0.6 W 20 26 11 14 1011.6 1011.5 -
25/04:30am 13.7 11.3 12.8 94 0.5 W 17 22 9 12 1011.4 1011.3 -
25/04:00am 13.4 10.9 12.3 93 0.6 WNW 17 20 9 11 1011.3 1011.2 -
25/03:30am 13.5 10.6 12.4 93 0.6 WNW 19 20 10 11 1011.1 1011.0 -
25/03:00am 13.3 11.5 12.0 92 0.7 WNW 13 15 7 8 1011.1 1011.0 -
25/02:30am 13.5 11.3 12.2 92 0.7 WNW 15 19 8 10 1011.4 1011.3 -
25/02:00am 13.2 13.4 11.8 91 0.7 N 2 9 1 5 1011.7 1011.6 -
25/01:30am 13.6 13.1 12.2 91 0.8 W 6 7 3 4 1011.8 1011.7 -
25/01:00am 14.3 14.1 12.9 91 0.8 WNW 6 7 3 4 1012.0 1011.9 -
25/12:30am 14.6 13.2 13.3 92 0.7 W 13 17 7 9 1012.1 1012.0 -
25/12:00am 15.0 12.4 13.7 92 0.7 W 20 28 11 15 1012.4 1012.3 -
 
Date/Time
CST
Temp
°C
App
Temp
°C
Dew
Point
°C
Rel
Hum
%
Delta-T
°C
Wind Press
QNH
hPa
Press
MSL
hPa
Rain since
9am
mm
Dir  Spd
km/h
Gust
km/h
Spd
kts
Gust
kts
24/11:30pm 15.5 12.4 14.4 93 0.6 W 24 32 13 17 1012.2 1012.1 -
24/11:00pm 16.2 14.3 15.2 94 0.6 WSW 19 24 10 13 1012.3 1012.2 -
24/10:30pm 16.3 14.8 15.2 93 0.6 WSW 17 22 9 12 1012.3 1012.2 -
24/10:00pm 16.3 14.3 15.0 92 0.8 W 19 24 10 13 1012.6 1012.5 -
24/09:30pm 16.0 15.0 14.5 91 0.9 W 13 15 7 8 1012.7 1012.6 -
24/09:00pm 16.1 15.5 14.6 91 0.9 W 11 15 6 8 1012.7 1012.6 -
24/08:30pm 15.8 14.3 14.3 91 0.9 WNW 15 17 8 9 1012.7 1012.6 -
24/08:00pm 16.0 16.3 14.9 93 0.6 N 7 9 4 5 1012.9 1012.8 -
24/07:30pm 16.2 17.7 14.7 91 0.9 CALM 0 0 0 0 1012.8 1012.7 -
24/07:00pm 16.1 17.5 14.3 89 1.0 CALM 0 0 0 0 1013.0 1012.9 -
24/06:30pm 16.0 17.4 14.4 90 0.9 CALM 0 0 0 0 1012.8 1012.7 -
24/06:00pm 15.9 17.0 14.6 92 0.7 SSW 2 4 1 2 1012.8 1012.7 -
24/05:30pm 15.7 15.9 14.6 93 0.6 SSW 7 9 4 5 1012.6 1012.5 -
24/05:00pm 16.1 15.6 15.0 93 0.6 SW 11 15 6 8 1012.9 1012.8 -
24/04:30pm 16.8 13.7 15.5 92 0.8 WNW 26 41 14 22 1012.9 1012.8 -
24/04:00pm 17.4 14.0 15.7 90 1.0 NW 28 41 15 22 1012.4 1012.3 -
24/03:30pm 17.9 14.2 15.9 88 1.2 NW 30 39 16 21 1012.4 1012.3 -
24/03:00pm 18.4 15.2 17.2 93 0.7 NNW 30 41 16 22 1012.4 1012.3 -
24/02:30pm 18.6 15.3 17.1 91 0.9 N 30 33 16 18 1012.3 1012.2 -
24/02:00pm 18.7 18.4 16.5 87 1.3 NNE 13 17 7 9 1013.0 1012.9 -
24/01:30pm 19.3 19.8 16.5 84 1.7 N 9 15 5 8 1013.3 1013.2 -
24/01:00pm 18.6 18.6 16.2 86 1.4 NNE 11 15 6 8 1013.8 1013.7 -
24/12:30pm 18.7 18.7 16.3 86 1.4 NNE 11 15 6 8 1014.5 1014.4 -
24/12:00pm 17.8 15.8 15.6 87 1.3 NE 20 24 11 13 1015.3 1015.2 0.0
24/11:30am 17.9 16.1 15.9 88 1.2 NE 20 28 11 15 1015.8 1015.7 0.0
24/11:00am 17.4 16.0 15.6 89 1.1 NE 17 22 9 12 1016.2 1016.1 0.0
24/10:30am 17.6 15.7 15.8 89 1.1 ENE 20 26 11 14 1016.5 1016.4 0.0
24/10:00am 17.4 14.7 15.7 90 1.0 ENE 24 30 13 16 1016.8 1016.7 0.0
24/09:30am 17.2 14.8 15.5 90 1.0 ENE 22 30 12 16 1017.1 1017.1 0.0
24/09:00am 17.2 15.2 15.5 90 1.0 ENE 20 26 11 14 1017.5 1017.5 -
24/08:30am 17.3 15.5 16.0 92 0.8 ENE 20 26 11 14 1017.5 1017.5 -
24/08:00am 16.7 14.0 15.6 93 0.6 ENE 24 28 13 15 1017.6 1017.6 -
24/07:30am 16.6 13.9 15.6 94 0.6 ENE 24 30 13 16 1017.6 1017.6 -
24/07:00am 16.5 14.1 15.4 93 0.6 NE 22 30 12 16 1017.7 1017.7 -
24/06:30am 16.5 13.2 15.0 91 0.9 ENE 26 33 14 18 1017.5 1017.5 -
24/06:00am 16.3 12.4 14.5 89 1.0 NE 28 35 15 19 1017.6 1017.6 -
24/05:30am 17.1 12.7 14.0 82 1.8 NE 30 37 16 20 1017.8 1017.8 -
24/05:00am 17.1 12.3 14.0 82 1.8 NE 32 37 17 20 1017.9 1017.9 -
24/04:00am 17.1 12.9 14.6 85 1.4 NE 30 35 16 19 1018.2 1018.2 -
24/03:30am 17.3 12.7 14.6 84 1.6 NE 32 37 17 20 1018.1 1018.1 0.0
24/03:00am 17.4 13.0 14.1 81 1.9 NE 30 35 16 19 1018.6 1018.6 0.0
24/02:30am 17.4 14.0 14.7 84 1.6 NNE 26 32 14 17 1018.8 1018.8 0.0
24/02:00am 17.5 16.0 16.2 92 0.8 NNE 19 22 10 12 1019.3 1019.3 0.0
24/01:30am 17.8 17.5 16.5 92 0.8 NE 13 17 7 9 1019.5 1019.5 0.0
24/01:00am 17.8 17.8 16.3 91 0.9 NE 11 15 6 8 1020.3 1020.2 0.0
24/12:30am 17.8 17.4 16.3 91 0.9 ENE 13 17 7 9 1020.3 1020.2 0.0
24/12:00am 17.9 17.6 16.4 91 0.9 ENE 13 13 7 7 1020.6 1020.5 0.0
 
Date/Time
CST
Temp
°C
App
Temp
°C
Dew
Point
°C
Rel
Hum
%
Delta-T
°C
Wind Press
QNH
hPa
Press
MSL
hPa
Rain since
9am
mm
Dir  Spd
km/h
Gust
km/h
Spd
kts
Gust
kts
23/11:30pm 17.9 17.6 16.4 91 0.9 E 13 17 7 9 1020.9 1020.8 0.0
23/11:00pm 17.8 17.4 16.3 91 0.9 ENE 13 17 7 9 1021.2 1021.1 0.0
23/10:30pm 17.8 17.4 16.3 91 0.9 E 13 15 7 8 1021.4 1021.3 0.0
23/10:00pm 17.7 16.9 16.2 91 0.9 E 15 17 8 9 1021.5 1021.4 0.0
23/09:30pm 17.6 16.4 16.1 91 0.9 E 17 20 9 11 1021.5 1021.4 0.0

Other Formats:

Comma delimited format used in spreadsheet applications
http://www.bom.gov.au/fwo/IDS60801/IDS60801.94822.axf

JavaScript Object Notation format (JSON) in row-major order
http://www.bom.gov.au/fwo/IDS60801/IDS60801.94822.json